Time;durP1;ratioP1;P1;durP2;ratioP2;P2;SDS_P1;SDS_P2;PMS_P1;PMS_P2;Temp;Humidity;BMP_temperature;BMP_pressure;BME280_temperature;BME280_humidity;BME280_pressure;Samples;Min_cycle;Max_cycle;Signal;HPM_P1;HPM_P2
2023/07/25 00:00:46;;;;;;;;;1.67;1.67;;;;;21.20;62.96;100063.84;5070324;28;45145;-62
2023/07/25 00:03:11;;;;;;;;;2.00;1.00;;;;;21.18;62.86;100054.81;5055840;28;45361;-64
2023/07/25 00:05:37;;;;;;;;;2.00;2.00;;;;;21.21;62.86;100062.00;5055838;28;45494;-61
2023/07/25 00:08:02;;;;;;;;;1.00;1.00;;;;;21.17;62.34;100062.09;5055632;28;45368;-62
2023/07/25 00:10:28;;;;;;;;;2.33;1.00;;;;;21.14;62.79;100062.19;5060747;28;45748;-61
2023/07/25 00:12:55;;;;;;;;;2.00;0.67;;;;;21.17;62.77;100069.38;5063015;28;45346;-62
2023/07/25 00:15:21;;;;;;;;;2.33;1.00;;;;;21.15;62.69;100066.69;5052403;28;47106;-66
2023/07/25 00:17:46;;;;;;;;;4.00;2.00;;;;;21.09;62.58;100056.00;5055757;28;45375;-61
2023/07/25 00:20:12;;;;;;;;;1.33;1.33;;;;;21.04;63.20;100043.47;5054523;28;45377;-61
2023/07/25 00:22:37;;;;;;;;;2.33;2.33;;;;;21.07;63.79;100052.44;5060901;28;45368;-65
2023/07/25 00:25:03;;;;;;;;;2.00;2.00;;;;;21.06;63.31;100060.63;5038855;28;47327;-67
2023/07/25 00:27:28;;;;;;;;;3.00;2.67;;;;;21.06;63.38;100057.91;5056812;28;45514;-62
2023/07/25 00:29:54;;;;;;;;;3.00;2.00;;;;;20.99;63.13;100060.78;5056781;28;52008;-65
2023/07/25 00:32:19;;;;;;;;;2.33;2.33;;;;;21.03;63.38;100057.97;5070778;28;45142;-65
2023/07/25 00:34:44;;;;;;;;;2.00;2.00;;;;;21.02;63.82;100056.19;5066374;28;45237;-61
2023/07/25 00:37:10;;;;;;;;;3.00;1.00;;;;;20.99;63.80;100057.19;5036892;28;45374;-62
2023/07/25 00:39:35;;;;;;;;;3.00;2.67;;;;;20.97;64.11;100062.66;5070682;28;45481;-62
2023/07/25 00:42:00;;;;;;;;;1.67;1.67;;;;;20.95;64.00;100067.25;5074074;28;45085;-62
2023/07/25 00:44:26;;;;;;;;;3.67;3.00;;;;;20.96;64.13;100054.56;5073810;28;45807;-64
2023/07/25 00:46:51;;;;;;;;;3.00;1.67;;;;;20.91;64.16;100043.81;5070370;28;45183;-63
2023/07/25 00:49:17;;;;;;;;;2.00;2.00;;;;;20.85;64.34;100035.81;5074010;28;45474;-65
2023/07/25 00:51:42;;;;;;;;;4.00;2.00;;;;;20.90;64.05;100052.00;5073872;28;45039;-63
2023/07/25 00:54:08;;;;;;;;;2.00;2.00;;;;;20.80;64.74;100035.06;5070782;28;45565;-64
2023/07/25 00:56:33;;;;;;;;;2.00;2.00;;;;;20.86;64.61;100036.75;5072982;28;45138;-66
2023/07/25 00:58:59;;;;;;;;;1.33;1.33;;;;;20.87;64.22;100046.66;5071591;28;45041;-62
2023/07/25 01:01:24;;;;;;;;;2.33;2.33;;;;;20.89;63.95;100039.38;5072040;28;45176;-65
2023/07/25 01:03:52;;;;;;;;;2.00;2.00;;;;;20.90;64.34;100035.69;5050853;28;47864;-62
2023/07/25 01:06:18;;;;;;;;;1.67;1.67;;;;;20.87;64.29;100036.69;5073570;28;45083;-62
2023/07/25 01:08:54;;;;;;;;;2.00;2.00;;;;;20.82;63.97;100027.75;5072211;28;45104;-63
2023/07/25 01:11:22;;;;;;;;;2.00;2.00;;;;;20.84;63.78;100039.50;5074110;28;45098;-64
2023/07/25 01:13:48;;;;;;;;;4.00;4.00;;;;;20.78;63.90;100029.66;5072154;28;45235;-65
2023/07/25 01:16:34;;;;;;;;;3.00;3.00;;;;;20.84;64.96;100030.44;5073187;28;44987;-62
2023/07/25 01:19:00;;;;;;;;;2.67;2.67;;;;;20.50;65.14;99985.19;5052924;28;45268;-64
2023/07/25 01:21:26;;;;;;;;;3.67;3.67;;;;;20.82;64.69;100040.44;5055529;28;44938;-62
2023/07/25 01:23:51;;;;;;;;;4.00;2.67;;;;;20.77;64.41;100029.72;5071061;28;45154;-63
2023/07/25 01:26:17;;;;;;;;;4.00;2.67;;;;;20.70;64.41;100006.38;5072357;28;44969;-62
2023/07/25 01:28:42;;;;;;;;;7.67;5.33;;;;;20.73;64.44;100011.75;5053349;28;44978;-61
2023/07/25 01:31:08;;;;;;;;;5.00;5.00;;;;;20.80;64.78;100025.13;5070262;28;45490;-64
2023/07/25 01:33:33;;;;;;;;;4.00;4.00;;;;;20.78;64.17;100021.53;5070146;28;46615;-64
2023/07/25 01:36:00;;;;;;;;;3.00;3.00;;;;;20.78;64.63;100024.25;5070236;28;44988;-63
2023/07/25 01:38:25;;;;;;;;;6.00;5.33;;;;;20.75;64.13;100021.59;5072975;28;45113;-62
2023/07/25 01:40:51;;;;;;;;;7.33;5.00;;;;;20.71;64.36;100003.63;5072737;28;46555;-64
2023/07/25 01:43:16;;;;;;;;;5.00;4.00;;;;;20.72;64.21;100001.81;5070885;28;46751;-62
2023/07/25 01:45:41;;;;;;;;;7.67;5.00;;;;;20.73;64.25;100001.75;5072600;28;45054;-62
2023/07/25 01:48:07;;;;;;;;;3.67;3.67;;;;;20.72;64.55;100010.84;5072089;28;45084;-62
2023/07/25 01:50:32;;;;;;;;;4.33;4.33;;;;;20.70;64.53;100015.41;5065861;28;45012;-62
2023/07/25 01:52:57;;;;;;;;;3.00;3.00;;;;;20.74;64.65;100018.94;5053627;28;46523;-64
2023/07/25 01:55:23;;;;;;;;;5.00;4.00;;;;;20.74;64.29;100029.78;5054728;28;45554;-63
2023/07/25 01:57:48;;;;;;;;;4.00;4.00;;;;;20.76;64.44;100028.81;5070088;28;52167;-62
2023/07/25 02:00:14;;;;;;;;;6.33;5.33;;;;;20.78;64.40;100026.97;5071338;28;45402;-61
2023/07/25 02:02:39;;;;;;;;;11.00;7.00;;;;;20.76;64.48;100014.38;5068916;28;45456;-62
2023/07/25 02:05:05;;;;;;;;;9.67;8.00;;;;;20.76;64.41;100008.94;5063186;28;45531;-63
2023/07/25 02:07:30;;;;;;;;;8.67;6.67;;;;;20.71;64.38;99995.50;5069030;28;45121;-64
2023/07/25 02:09:55;;;;;;;;;8.00;7.33;;;;;20.62;64.76;99987.56;5069862;28;45330;-62
2023/07/25 02:12:21;;;;;;;;;9.33;7.00;;;;;20.74;64.71;100011.69;5068297;28;45545;-64
2023/07/25 02:14:47;;;;;;;;;5.00;5.00;;;;;20.72;64.78;100015.38;5071228;28;45084;-62
2023/07/25 02:17:12;;;;;;;;;6.00;4.67;;;;;20.72;65.14;100018.09;5070988;28;45122;-63
2023/07/25 02:19:38;;;;;;;;;8.00;5.67;;;;;20.68;65.07;100001.00;5072804;28;45203;-62
2023/07/25 02:22:04;;;;;;;;;5.67;5.00;;;;;20.74;65.10;100002.66;5070763;28;45447;-61
2023/07/25 02:24:30;;;;;;;;;4.00;3.33;;;;;20.73;64.74;100001.75;5053510;28;45127;-64
2023/07/25 02:26:55;;;;;;;;;3.33;2.00;;;;;20.71;64.54;99991.91;5069656;28;45262;-61
2023/07/25 02:29:21;;;;;;;;;5.00;3.00;;;;;20.74;64.92;100000.84;5070432;28;45041;-64
2023/07/25 02:31:46;;;;;;;;;1.00;1.00;;;;;20.75;64.75;99983.59;5070403;28;44969;-61
2023/07/25 02:34:11;;;;;;;;;5.00;5.00;;;;;20.63;64.35;99967.66;5059916;28;45394;-62
2023/07/25 02:36:37;;;;;;;;;4.00;2.00;;;;;20.70;64.46;99979.25;5062885;28;45429;-66
2023/07/25 02:39:02;;;;;;;;;3.67;3.00;;;;;20.54;64.93;99957.03;5070562;28;45163;-61
2023/07/25 02:41:28;;;;;;;;;5.00;2.67;;;;;20.67;65.30;99982.91;5071924;28;45777;-67
2023/07/25 02:43:53;;;;;;;;;5.33;4.00;;;;;20.64;65.43;99982.13;5069546;28;51300;-64
2023/07/25 02:46:18;;;;;;;;;3.67;3.00;;;;;20.66;65.80;99983.00;5071521;28;45319;-63
2023/07/25 02:48:43;;;;;;;;;4.67;3.33;;;;;20.66;65.82;99989.31;5042726;28;45480;-62
2023/07/25 02:51:09;;;;;;;;;4.00;4.00;;;;;20.65;65.70;99982.09;5046506;28;59240;-63
2023/07/25 02:53:34;;;;;;;;;3.00;2.00;;;;;20.64;65.39;99980.31;5057790;28;45852;-65
2023/07/25 02:55:59;;;;;;;;;2.00;2.00;;;;;20.60;65.28;99979.44;5060194;28;56493;-62
2023/07/25 02:58:25;;;;;;;;;3.33;3.33;;;;;20.56;65.74;99972.34;5067144;28;45249;-62
2023/07/25 03:00:50;;;;;;;;;10.67;5.67;;;;;20.56;65.82;99979.59;5064260;28;47590;-63
2023/07/25 03:03:15;;;;;;;;;3.33;3.33;;;;;20.51;65.66;99973.38;5054415;28;46140;-62
2023/07/25 03:05:41;;;;;;;;;5.00;3.00;;;;;20.51;65.73;99976.09;5061239;28;45590;-64
2023/07/25 03:08:06;;;;;;;;;2.00;2.00;;;;;20.45;66.07;99960.88;5053280;28;45774;-64
2023/07/25 03:10:32;;;;;;;;;5.67;4.33;;;;;20.53;65.88;99979.69;5055164;28;45831;-62
2023/07/25 03:12:58;;;;;;;;;5.67;4.67;;;;;20.52;66.37;99986.91;5056665;28;45447;-62
2023/07/25 03:15:23;;;;;;;;;6.00;4.33;;;;;20.51;65.62;99976.09;5058491;28;45560;-64
2023/07/25 03:17:49;;;;;;;;;3.00;3.00;;;;;20.44;65.44;99981.72;5060044;28;45465;-63
2023/07/25 03:20:15;;;;;;;;;5.00;3.00;;;;;20.38;65.62;99973.72;5060923;28;45819;-65
2023/07/25 03:22:40;;;;;;;;;3.00;3.00;;;;;20.48;65.69;99989.78;5061726;28;45464;-61
2023/07/25 03:25:06;;;;;;;;;4.00;3.00;;;;;20.42;65.20;99980.84;5069324;28;46473;-62
2023/07/25 03:27:31;;;;;;;;;3.33;3.33;;;;;20.46;65.01;99988.91;5070713;28;44855;-61
2023/07/25 03:29:56;;;;;;;;;4.00;2.00;;;;;20.43;64.98;99992.59;5069423;28;45493;-64
2023/07/25 03:32:22;;;;;;;;;6.00;3.33;;;;;20.39;64.92;99983.66;5068095;28;45155;-62
2023/07/25 03:34:47;;;;;;;;;2.00;2.00;;;;;20.30;65.15;99970.31;5065078;28;44867;-65
2023/07/25 03:37:12;;;;;;;;;3.67;2.00;;;;;20.38;65.16;99983.69;5064854;28;45242;-63
2023/07/25 03:39:38;;;;;;;;;3.67;3.67;;;;;20.40;65.32;99988.13;5052155;28;45436;-63
2023/07/25 03:42:03;;;;;;;;;3.00;2.33;;;;;20.42;65.32;99996.22;5061516;28;45527;-63
2023/07/25 03:44:29;;;;;;;;;3.67;2.67;;;;;20.31;65.52;99985.69;5056412;28;45368;-61
2023/07/25 03:46:54;;;;;;;;;2.33;2.33;;;;;20.39;65.12;99990.88;5058629;28;45433;-63
2023/07/25 03:49:19;;;;;;;;;5.33;4.00;;;;;20.30;65.17;99972.16;5053227;28;58749;-64
2023/07/25 03:51:45;;;;;;;;;3.67;2.67;;;;;20.26;64.99;99974.06;5065669;28;44921;-66
2023/07/25 03:54:10;;;;;;;;;5.33;5.33;;;;;20.33;65.14;100000.09;5056826;28;45466;-63
2023/07/25 03:56:35;;;;;;;;;32.50;30.50;;;;;20.27;65.63;99983.06;5055987;28;45515;-62
2023/07/25 03:59:01;;;;;;;;;5.00;5.00;;;;;20.35;66.09;100013.63;5056245;28;46170;-61
2023/07/25 04:01:27;;;;;;;;;4.00;4.00;;;;;20.24;65.61;99993.09;5058752;28;45457;-68
2023/07/25 04:03:52;;;;;;;;;10.67;10.67;;;;;20.32;65.12;100003.72;5045294;28;45333;-64
2023/07/25 04:06:20;;;;;;;;;6.33;4.67;;;;;20.28;64.67;100014.69;5055985;28;45573;-67
2023/07/25 04:08:45;;;;;;;;;5.00;3.33;;;;;20.24;64.92;100022.94;5056471;28;46502;-66
2023/07/25 04:11:13;;;;;;;;;6.00;3.00;;;;;20.25;64.97;100029.22;5062884;28;45551;-66
2023/07/25 04:13:38;;;;;;;;;5.00;4.00;;;;;20.19;64.98;100032.97;5056397;28;45349;-67
2023/07/25 04:16:04;;;;;;;;;4.00;3.00;;;;;20.13;65.78;100026.81;5063485;28;45270;-68
2023/07/25 04:18:29;;;;;;;;;5.00;3.00;;;;;20.03;65.83;100024.34;5064103;28;45546;-66
2023/07/25 04:20:54;;;;;;;;;4.00;2.67;;;;;20.05;66.35;100033.31;5059992;28;45560;-65
2023/07/25 04:23:21;;;;;;;;;3.33;3.33;;;;;20.08;66.36;100040.50;5036362;28;45568;-64
2023/07/25 04:25:47;;;;;;;;;6.00;5.00;;;;;19.96;67.12;100019.09;5057040;28;45373;-70
2023/07/25 04:28:13;;;;;;;;;6.00;3.67;;;;;20.09;67.16;100049.53;5039260;28;48009;-66
2023/07/25 04:30:38;;;;;;;;;7.67;5.00;;;;;20.11;67.14;100050.38;5036718;28;50194;-70
2023/07/25 04:33:04;;;;;;;;;10.67;8.67;;;;;20.04;66.95;100041.50;5067718;28;45449;-66
2023/07/25 04:35:29;;;;;;;;;14.00;12.67;;;;;19.98;67.29;100038.91;5065739;28;45306;-69
2023/07/25 04:37:54;;;;;;;;;9.33;8.00;;;;;19.99;67.56;100040.72;5057312;28;45701;-68
2023/07/25 04:40:19;;;;;;;;;10.33;9.67;;;;;20.00;67.66;100034.38;5053918;28;47229;-69
2023/07/25 04:42:45;;;;;;;;;7.67;7.33;;;;;20.00;67.30;100032.53;5056205;28;45417;-67
2023/07/25 04:45:10;;;;;;;;;11.33;8.00;;;;;19.93;67.48;100021.88;5057797;28;45576;-67
2023/07/25 04:47:36;;;;;;;;;10.00;8.00;;;;;19.99;67.50;100028.03;5065361;28;45337;-62
2023/07/25 04:50:01;;;;;;;;;5.33;5.33;;;;;20.00;67.05;100043.38;5056963;28;45267;-63
2023/07/25 04:52:27;;;;;;;;;6.33;6.33;;;;;19.98;67.49;100039.84;5059278;28;45452;-64
2023/07/25 04:54:57;;;;;;;;;8.67;4.00;;;;;19.99;67.28;100041.59;5037836;28;45501;-61
2023/07/25 04:57:22;;;;;;;;;4.00;4.00;;;;;20.01;67.63;100045.19;5063825;28;46078;-62
2023/07/25 04:59:48;;;;;;;;;11.67;5.33;;;;;20.02;67.65;100051.50;5055643;28;45403;-65
2023/07/25 05:02:13;;;;;;;;;6.67;5.67;;;;;20.00;67.82;100053.34;5060342;28;45430;-61
2023/07/25 05:04:38;;;;;;;;;7.00;6.00;;;;;20.00;67.76;100056.06;5059204;28;45502;-62
2023/07/25 05:07:04;;;;;;;;;8.67;7.00;;;;;19.94;68.21;100067.03;5055676;28;45547;-62
2023/07/25 05:09:29;;;;;;;;;3.67;3.67;;;;;19.93;67.87;100051.69;5060160;28;45317;-61
2023/07/25 05:11:55;;;;;;;;;4.00;4.00;;;;;20.00;68.23;100064.19;5065061;28;45537;-63
2023/07/25 05:14:20;;;;;;;;;5.67;5.00;;;;;19.91;67.69;100062.56;5064781;28;45061;-61
2023/07/25 05:16:45;;;;;;;;;7.00;6.00;;;;;19.95;67.55;100068.84;5055265;28;45808;-63
2023/07/25 05:19:11;;;;;;;;;4.00;4.00;;;;;19.94;66.71;100076.06;5050032;28;45383;-61
2023/07/25 05:21:36;;;;;;;;;9.67;5.00;;;;;19.88;66.61;100060.84;5054863;28;45445;-65
2023/07/25 05:24:02;;;;;;;;;6.00;4.00;;;;;19.91;66.61;100069.81;5068501;28;45507;-62
2023/07/25 05:26:28;;;;;;;;;7.00;6.00;;;;;19.93;67.07;100070.66;5070734;28;46490;-62
2023/07/25 05:28:53;;;;;;;;;5.33;3.00;;;;;19.89;66.95;100061.72;5055869;28;51800;-61
2023/07/25 05:31:18;;;;;;;;;7.00;4.33;;;;;19.93;67.12;100070.66;5061088;28;51673;-61
2023/07/25 05:33:44;;;;;;;;;8.00;6.00;;;;;19.94;67.06;100080.59;5051475;28;45462;-62
2023/07/25 05:36:09;;;;;;;;;20.33;19.33;;;;;20.00;67.55;100075.03;5067843;28;45131;-61
2023/07/25 05:38:34;;;;;;;;;6.67;5.67;;;;;19.99;67.16;100078.66;5064870;28;54200;-61
2023/07/25 05:41:00;;;;;;;;;55.50;42.25;;;;;20.02;67.13;100082.19;5069330;28;45387;-60
2023/07/25 05:43:25;;;;;;;;;25.00;22.00;;;;;19.98;67.01;100085.94;5065656;28;45113;-63
2023/07/25 05:45:50;;;;;;;;;9.67;9.67;;;;;19.97;66.92;100085.97;5067608;28;45508;-62
2023/07/25 05:48:16;;;;;;;;;7.00;7.00;;;;;20.00;67.08;100089.47;5070004;28;45124;-61
2023/07/25 05:50:41;;;;;;;;;18.00;17.33;;;;;19.69;67.00;100032.34;5053819;28;45107;-63
2023/07/25 05:53:06;;;;;;;;;9.33;7.00;;;;;20.05;67.26;100094.81;5070842;28;45174;-61
2023/07/25 05:55:32;;;;;;;;;7.00;5.67;;;;;20.07;67.56;100101.97;5063569;28;46267;-61
2023/07/25 05:57:57;;;;;;;;;5.33;5.33;;;;;20.09;67.14;100096.50;5066118;28;48893;-62
2023/07/25 06:00:22;;;;;;;;;6.67;5.33;;;;;20.12;67.15;100101.84;5069767;28;47032;-62
2023/07/25 06:02:48;;;;;;;;;10.67;10.00;;;;;20.02;67.54;100075.91;5067825;28;52778;-63
2023/07/25 06:05:13;;;;;;;;;20.33;18.00;;;;;20.05;67.00;100095.69;5072398;28;45977;-63
2023/07/25 06:07:39;;;;;;;;;19.33;17.67;;;;;20.13;66.68;100106.38;5069760;28;46165;-62
2023/07/25 06:10:05;;;;;;;;;12.00;10.33;;;;;20.15;67.12;100106.34;5070634;28;45107;-63
2023/07/25 06:12:30;;;;;;;;;9.00;8.00;;;;;20.10;67.32;100106.44;5051355;28;45202;-64
2023/07/25 06:14:56;;;;;;;;;6.00;6.00;;;;;20.18;66.92;100115.28;5058122;28;45271;-61
2023/07/25 06:17:21;;;;;;;;;7.00;7.00;;;;;20.12;66.57;100112.72;5061224;28;45463;-63
2023/07/25 06:19:46;;;;;;;;;13.00;10.00;;;;;20.16;66.08;100121.66;5068115;28;45130;-62
2023/07/25 06:22:15;;;;;;;;;6.00;6.00;;;;;20.17;66.01;100127.06;5070572;28;45213;-63
2023/07/25 06:24:41;;;;;;;;;4.67;4.67;;;;;20.15;66.03;100128.91;5047567;28;48462;-63
2023/07/25 06:27:07;;;;;;;;;11.33;9.33;;;;;20.10;66.10;100111.84;5061275;28;45495;-62
2023/07/25 06:29:32;;;;;;;;;7.33;6.33;;;;;20.08;65.35;100116.44;5063968;28;45585;-65
2023/07/25 06:31:57;;;;;;;;;13.00;11.33;;;;;20.15;64.98;100130.75;5058570;28;45735;-63
2023/07/25 06:34:23;;;;;;;;;11.33;11.33;;;;;20.01;65.10;100117.47;5061777;28;46753;-61
2023/07/25 06:36:48;;;;;;;;;8.00;8.00;;;;;20.14;65.36;100147.94;5063585;28;45255;-64
2023/07/25 06:39:14;;;;;;;;;18.00;16.33;;;;;20.14;65.26;100140.69;5066307;28;45148;-64
2023/07/25 06:41:39;;;;;;;;;22.00;19.67;;;;;20.01;65.21;100131.94;5063738;28;45206;-64
2023/07/25 06:44:05;;;;;;;;;14.00;10.33;;;;;20.01;64.40;100150.03;5062765;28;45403;-65
2023/07/25 06:46:30;;;;;;;;;29.33;25.33;;;;;19.98;64.68;100152.78;5066079;28;45440;-62
2023/07/25 06:48:56;;;;;;;;;15.00;13.33;;;;;19.95;64.59;100159.19;5064539;28;45132;-65
2023/07/25 06:51:21;;;;;;;;;14.67;14.67;;;;;19.86;65.10;100149.44;5066251;28;45183;-61
2023/07/25 06:53:46;;;;;;;;;21.00;17.33;;;;;19.92;64.64;100171.94;5067994;28;45409;-63
2023/07/25 06:56:11;;;;;;;;;23.00;20.67;;;;;19.93;64.97;100168.28;5061915;28;45131;-64
2023/07/25 06:58:37;;;;;;;;;13.67;12.67;;;;;19.85;64.69;100165.75;5067765;28;45318;-63
2023/07/25 07:01:02;;;;;;;;;18.67;14.33;;;;;19.87;63.70;100182.88;5067123;28;45146;-64
2023/07/25 07:03:28;;;;;;;;;17.33;17.33;;;;;19.84;63.94;100189.22;5066058;28;45789;-64
2023/07/25 07:05:56;;;;;;;;;15.00;12.67;;;;;19.68;63.80;100168.75;5066724;28;45562;-67
2023/07/25 07:08:22;;;;;;;;;21.67;16.00;;;;;19.80;63.94;100194.75;5063221;28;45747;-66
2023/07/25 07:10:54;;;;;;;;;18.67;13.67;;;;;19.72;63.92;100199.44;5068065;28;45303;-64
2023/07/25 07:13:21;;;;;;;;;18.67;16.00;;;;;19.74;64.02;100194.84;5068070;28;46157;-65
2023/07/25 07:15:47;;;;;;;;;11.33;11.33;;;;;19.71;63.17;100206.63;5062768;28;45185;-63
2023/07/25 07:18:13;;;;;;;;;22.33;21.67;;;;;19.70;63.52;100211.19;5067488;28;45148;-64
2023/07/25 07:20:38;;;;;;;;;21.33;13.33;;;;;19.33;63.10;100157.69;5070358;28;45133;-61
2023/07/25 07:23:04;;;;;;;;;14.00;10.67;;;;;19.65;62.46;100217.59;5070327;28;45283;-62
2023/07/25 07:25:30;;;;;;;;;13.67;10.67;;;;;19.61;62.65;100227.59;5070173;28;45334;-64
2023/07/25 07:27:55;;;;;;;;;8.33;6.67;;;;;19.62;62.68;100232.13;5071461;28;45068;-65
2023/07/25 07:30:21;;;;;;;;;30.67;26.00;;;;;19.54;61.45;100238.59;5072170;28;45737;-62
2023/07/25 07:32:47;;;;;;;;;14.67;11.00;;;;;19.39;61.31;100228.94;5072770;28;45650;-64
2023/07/25 07:35:12;;;;;;;;;9.67;8.00;;;;;19.39;62.26;100234.38;5052634;28;45072;-62
2023/07/25 07:37:38;;;;;;;;;7.67;6.67;;;;;19.38;62.04;100236.16;5071686;28;45302;-63
2023/07/25 07:40:04;;;;;;;;;6.67;6.67;;;;;19.45;61.28;100245.06;5072374;28;45024;-63
2023/07/25 07:42:29;;;;;;;;;8.00;8.00;;;;;19.44;60.56;100262.28;5053924;28;46703;-63
2023/07/25 07:44:55;;;;;;;;;8.67;7.67;;;;;19.42;60.92;100262.28;5070734;28;45128;-63
2023/07/25 07:47:20;;;;;;;;;14.00;11.00;;;;;19.37;60.60;100256.06;5071478;28;49397;-63
2023/07/25 07:49:46;;;;;;;;;35.00;27.75;;;;;19.41;60.69;100265.91;5071449;28;45613;-63
2023/07/25 07:52:11;;;;;;;;;5.67;5.33;;;;;19.27;59.99;100249.00;5064005;28;45708;-63
2023/07/25 07:54:36;;;;;;;;;5.67;4.67;;;;;19.38;60.80;100265.97;5066391;28;55293;-62
2023/07/25 07:57:02;;;;;;;;;4.00;4.00;;;;;19.49;60.23;100274.78;5060745;28;45520;-62
2023/07/25 07:59:27;;;;;;;;;4.00;4.00;;;;;19.49;59.08;100277.50;5058697;28;45611;-61
2023/07/25 08:01:52;;;;;;;;;3.00;3.00;;;;;19.43;59.03;100287.56;5059910;28;45730;-64
2023/07/25 08:04:18;;;;;;;;;0.33;0.33;;;;;19.42;59.15;100305.63;5058545;28;45601;-62
2023/07/25 08:06:43;;;;;;;;;4.33;4.00;;;;;19.40;59.18;100293.03;5064229;28;54440;-62
2023/07/25 08:09:08;;;;;;;;;5.67;2.33;;;;;19.43;58.94;100295.69;5054207;28;45145;-66
2023/07/25 08:11:34;;;;;;;;;7.33;5.67;;;;;19.47;58.99;100298.31;5071186;28;45680;-64
2023/07/25 08:13:59;;;;;;;;;13.33;11.33;;;;;19.52;59.48;100309.09;5054205;28;45574;-63
2023/07/25 08:16:24;;;;;;;;;2.00;2.00;;;;;19.49;58.69;100301.00;5048501;28;49810;-63
2023/07/25 08:18:50;;;;;;;;;16.67;15.00;;;;;19.44;58.66;100311.91;5069233;28;45017;-63
2023/07/25 08:21:15;;;;;;;;;7.00;6.67;;;;;19.46;58.35;100311.88;5065989;28;45777;-62
2023/07/25 08:23:41;;;;;;;;;13.00;11.00;;;;;19.37;58.25;100284.94;5062573;28;54257;-62
2023/07/25 08:26:06;;;;;;;;;2.00;2.00;;;;;19.52;58.16;100309.09;5065362;28;45213;-63
2023/07/25 08:28:31;;;;;;;;;5.00;4.33;;;;;19.60;58.30;100308.94;5058422;28;45427;-63
2023/07/25 08:31:01;;;;;;;;;4.00;2.67;;;;;19.67;58.32;100321.47;5069360;28;45593;-65
2023/07/25 08:33:28;;;;;;;;;1.00;1.00;;;;;19.67;57.27;100311.50;5072446;28;45051;-62
2023/07/25 08:35:54;;;;;;;;;3.33;1.00;;;;;19.70;57.80;100321.41;5055263;28;45107;-63
2023/07/25 08:38:20;;;;;;;;;4.00;2.00;;;;;19.83;57.78;100336.56;5071247;28;45656;-66
2023/07/25 08:40:53;;;;;;;;;36.00;31.75;;;;;19.84;56.89;100332.03;5056584;28;45382;-65
2023/07/25 08:43:21;;;;;;;;;3.00;1.67;;;;;19.97;56.18;100341.72;5046093;28;45393;-64
2023/07/25 08:45:49;;;;;;;;;14.00;11.67;;;;;20.05;55.78;100338.88;5058713;28;45530;-63
2023/07/25 08:48:15;;;;;;;;;3.67;3.67;;;;;20.12;55.17;100340.53;5057158;28;47081;-64
2023/07/25 08:50:45;;;;;;;;;4.00;4.00;;;;;20.11;54.12;100338.72;5064256;28;46268;-64
2023/07/25 08:53:14;;;;;;;;;4.33;3.67;;;;;20.25;54.20;100362.88;5071163;28;45310;-65
2023/07/25 08:55:40;;;;;;;;;6.00;5.00;;;;;20.33;53.39;100362.75;5067618;28;45425;-65
2023/07/25 08:58:05;;;;;;;;;3.33;2.00;;;;;20.36;53.28;100371.72;5065011;28;45285;-64
2023/07/25 09:00:31;;;;;;;;;5.00;5.00;;;;;20.37;53.13;100369.88;5058992;28;46320;-62
2023/07/25 09:02:58;;;;;;;;;15.33;12.00;;;;;20.42;52.57;100382.41;5071201;28;45022;-67
2023/07/25 09:05:24;;;;;;;;;5.00;4.67;;;;;20.48;52.45;100385.97;5046351;28;45763;-63
2023/07/25 09:07:49;;;;;;;;;8.33;6.00;;;;;20.45;52.47;100381.47;5052364;28;45366;-63
2023/07/25 09:10:15;;;;;;;;;5.67;3.00;;;;;20.45;52.47;100386.91;5069423;28;46372;-63
2023/07/25 09:12:40;;;;;;;;;3.33;2.00;;;;;20.45;52.32;100403.19;5068545;28;45357;-67
2023/07/25 09:15:06;;;;;;;;;3.00;3.00;;;;;20.45;52.26;100403.19;5069007;28;45097;-64
2023/07/25 09:17:31;;;;;;;;;11.67;9.67;;;;;20.51;53.08;100413.94;5069490;28;44899;-63
2023/07/25 09:19:57;;;;;;;;;2.00;2.00;;;;;20.54;53.44;100421.09;5068319;28;46819;-65
2023/07/25 09:22:31;;;;;;;;;5.33;4.33;;;;;20.51;53.15;100423.88;5066299;28;45101;-62
2023/07/25 09:24:58;;;;;;;;;4.67;2.67;;;;;20.50;54.00;100422.97;5069143;28;45186;-64
2023/07/25 09:27:24;;;;;;;;;2.67;2.33;;;;;20.55;54.56;100439.19;5070814;28;45597;-64
2023/07/25 09:29:51;;;;;;;;;26.33;26.33;;;;;20.56;54.04;100440.97;5072320;28;46626;-63
2023/07/25 09:32:27;;;;;;;;;5.00;4.00;;;;;20.58;54.05;100442.72;5070060;28;45148;-63
2023/07/25 09:34:57;;;;;;;;;6.67;4.00;;;;;20.56;54.42;100446.41;5071010;28;45445;-62
2023/07/25 09:37:23;;;;;;;;;5.33;5.00;;;;;20.27;54.69;100396.28;5071807;28;45186;-62
2023/07/25 09:39:49;;;;;;;;;3.00;3.00;;;;;20.60;54.46;100458.97;5069283;28;45206;-66
2023/07/25 09:42:14;;;;;;;;;3.33;3.33;;;;;20.60;54.27;100451.72;5069481;28;46582;-62
2023/07/25 09:44:47;;;;;;;;;6.67;6.67;;;;;20.60;54.14;100461.69;5071392;28;45471;-62
2023/07/25 09:47:13;;;;;;;;;4.33;4.33;;;;;20.58;54.01;100450.88;5053287;28;45958;-63
2023/07/25 09:49:46;;;;;;;;;5.00;4.00;;;;;20.64;53.67;100451.69;5053793;28;45292;-64
2023/07/25 09:52:11;;;;;;;;;6.00;5.33;;;;;20.74;53.92;100459.66;5051682;28;45469;-65
2023/07/25 09:54:36;;;;;;;;;5.33;4.00;;;;;20.86;53.82;100476.63;5038593;28;45529;-62
2023/07/25 09:57:02;;;;;;;;;5.00;5.00;;;;;20.89;53.18;100473.84;5036713;28;45591;-63
2023/07/25 09:59:29;;;;;;;;;5.67;5.67;;;;;20.94;52.87;100478.25;5035979;28;46894;-66
2023/07/25 10:01:56;;;;;;;;;6.00;5.00;;;;;20.90;52.94;100481.03;5036525;28;45478;-63
2023/07/25 10:04:22;;;;;;;;;6.00;6.00;;;;;20.95;52.95;100479.13;5051408;28;45600;-63
2023/07/25 10:06:49;;;;;;;;;5.67;4.67;;;;;20.95;52.35;100484.56;5054590;28;46483;-63
2023/07/25 10:09:16;;;;;;;;;5.33;5.33;;;;;20.82;52.39;100483.00;5051125;28;46228;-65
2023/07/25 10:11:41;;;;;;;;;4.00;4.00;;;;;20.83;52.48;100480.28;5046879;28;45356;-63
2023/07/25 10:14:08;;;;;;;;;7.00;7.00;;;;;20.91;52.70;100486.44;5036153;28;45461;-64
2023/07/25 10:16:35;;;;;;;;;3.67;3.67;;;;;21.02;52.22;100483.53;5052624;28;45604;-68
2023/07/25 10:19:01;;;;;;;;;9.00;7.67;;;;;21.21;51.83;100497.59;5053938;28;45517;-63
2023/07/25 10:21:44;;;;;;;;;8.00;6.33;;;;;21.28;50.60;100491.13;5053828;28;45495;-64
2023/07/25 10:24:11;;;;;;;;;5.00;5.00;;;;;21.30;50.37;100474.75;5053857;28;45635;-65
2023/07/25 10:26:52;;;;;;;;;20.33;18.00;;;;;21.52;50.69;100486.97;5052637;28;45433;-62
2023/07/25 10:29:38;;;;;;;;;10.33;6.33;;;;;21.66;48.74;100478.50;5053928;28;46364;-63
2023/07/25 10:32:03;;;;;;;;;7.00;5.67;;;;;21.71;49.12;100484.72;5050208;28;45794;-63
2023/07/25 10:34:47;;;;;;;;;9.00;8.00;;;;;21.81;48.64;100489.91;5052507;28;45743;-62
2023/07/25 10:37:21;;;;;;;;;18.33;14.33;;;;;21.89;48.70;100480.66;5047729;28;45630;-65
2023/07/25 10:40:04;;;;;;;;;12.67;10.00;;;;;22.03;48.42;100480.31;5048957;28;46232;-62
2023/07/25 10:42:47;;;;;;;;;6.33;5.33;;;;;22.17;48.05;100479.06;5053513;28;45454;-66
2023/07/25 10:45:28;;;;;;;;;6.00;5.67;;;;;22.19;47.62;100483.53;5050936;28;45499;-65
2023/07/25 10:47:54;;;;;;;;;10.33;6.33;;;;;22.26;47.39;100484.28;5052134;28;45390;-63
2023/07/25 10:50:25;;;;;;;;;7.00;7.00;;;;;22.34;46.85;100476.81;5046947;28;46249;-65
2023/07/25 10:52:51;;;;;;;;;8.00;6.33;;;;;22.50;47.00;100488.19;5053484;28;45489;-64
2023/07/25 10:55:16;;;;;;;;;6.00;6.00;;;;;22.56;45.49;100478.97;5051718;28;45342;-65
2023/07/25 10:58:02;;;;;;;;;19.33;16.00;;;;;22.62;45.62;100484.25;5053237;28;45652;-65
2023/07/25 11:00:35;;;;;;;;;6.33;6.00;;;;;22.62;45.03;100492.41;5053018;28;46177;-63
2023/07/25 11:03:27;;;;;;;;;7.00;7.00;;;;;22.56;45.01;100500.75;5052791;28;45528;-66
2023/07/25 11:06:13;;;;;;;;;5.33;5.33;;;;;22.40;45.59;100492.09;5053509;28;45399;-64
2023/07/25 11:08:42;;;;;;;;;12.33;11.67;;;;;22.47;45.96;100509.16;5053781;28;45985;-65
2023/07/25 11:11:12;;;;;;;;;6.33;6.00;;;;;22.32;45.73;100484.13;5050215;28;45699;-65
2023/07/25 11:13:40;;;;;;;;;9.67;9.67;;;;;22.48;46.29;100495.50;5035191;28;45393;-65
2023/07/25 11:16:07;;;;;;;;;7.00;6.00;;;;;22.63;45.95;100500.50;5052794;28;46078;-70
2023/07/25 11:18:36;;;;;;;;;9.00;7.67;;;;;22.76;45.50;100500.19;5053230;28;45613;-67
2023/07/25 11:21:03;;;;;;;;;8.67;8.67;;;;;22.88;45.46;100505.28;5053325;28;45572;-64